Aviation Digital Data Service (ADDS)

Output produced by METARs form (1155 UTC 18 June 2019)
found at http://www.aviationweather.gov/metar/data/
 
Forecast for: MDSD (CAUCEDO/DE LAS , DO)
Text: TAF MDSD 181000Z 1812/1912 02004KT 9999 FEW018
Forecast period: 1200 to 1300 UTC 18 June 2019
Forecast type: FROM: standard forecast or significant change
Winds: from the NNE (20 degrees) at 5 MPH (4 knots; 2.1 m/s)
Visibility: 6 or more miles 10+ km)
Ceiling: at least 12,000 feet AGL
Clouds: few clouds at 1800 feet AGL
Weather: no significant weather forecast for this period
Text: BECMG 1813/1815 14010KT
Forecast period: 1300 UTC 18 June 2019 to 1200 UTC 19 June 2019
Forecast type: BECOMING: Conditions expected to become as follows by 1500 UTC 18 June 2019
Winds: from the SE (140 degrees) at 12 MPH (10 knots; 5.1 m/s)
Visibility: 6 or more miles 10+ km)
Ceiling: at least 12,000 feet AGL
Clouds: few clouds at 1800 feet AGL
Weather: no significant weather forecast for this period